Time;durP1;ratioP1;P1;durP2;ratioP2;P2;SDS_P1;SDS_P2;PMS_P1;PMS_P2;Temp;Humidity;BMP_temperature;BMP_pressure;BME280_temperature;BME280_humidity;BME280_pressure;Samples;Min_cycle;Max_cycle;Signal;HPM_P1;HPM_P2
2021/01/16 00:00:54;;;;;;;21.20;10.18;;;2.00;99.90;;;;;;5016196;28;20030;-59
2021/01/16 00:03:20;;;;;;;27.35;10.68;;;2.00;99.90;;;;;;5015943;28;20056;-59
2021/01/16 00:05:47;;;;;;;21.98;9.27;;;1.90;99.90;;;;;;5015883;28;20030;-57
2021/01/16 00:08:17;;;;;;;22.75;9.88;;;1.90;99.90;;;;;;5015984;28;20069;-59
2021/01/16 00:10:45;;;;;;;22.15;9.65;;;2.00;99.90;;;;;;5014567;28;20026;-58
2021/01/16 00:13:17;;;;;;;20.35;9.20;;;2.00;99.90;;;;;;5015946;28;20034;-58
2021/01/16 00:15:44;;;;;;;20.88;9.75;;;2.00;99.90;;;;;;5015612;28;20030;-57
2021/01/16 00:18:14;;;;;;;23.55;10.07;;;2.00;99.90;;;;;;5015590;28;20088;-57
2021/01/16 00:20:44;;;;;;;22.48;9.88;;;1.90;99.90;;;;;;5015868;28;20096;-58
2021/01/16 00:23:11;;;;;;;26.08;11.07;;;2.00;99.90;;;;;;5015316;28;20136;-58
2021/01/16 00:25:37;;;;;;;23.70;11.02;;;2.00;99.90;;;;;;5015791;28;20029;-58
2021/01/16 00:28:05;;;;;;;25.27;10.70;;;2.00;99.90;;;;;;5015273;28;20026;-59
2021/01/16 00:30:34;;;;;;;19.88;9.98;;;2.00;99.90;;;;;;5015486;28;20037;-58
2021/01/16 00:33:02;;;;;;;21.48;9.38;;;1.90;99.90;;;;;;5015189;28;20026;-59
2021/01/16 00:35:31;;;;;;;23.83;11.50;;;1.90;99.90;;;;;;5015325;28;20122;-57
2021/01/16 00:37:57;;;;;;;23.48;9.52;;;1.90;99.90;;;;;;5015250;28;20095;-57
2021/01/16 00:40:26;;;;;;;24.15;10.50;;;1.90;99.90;;;;;;5014931;28;20140;-57
2021/01/16 00:42:55;;;;;;;23.23;10.43;;;1.90;99.90;;;;;;5015156;28;20061;-57
2021/01/16 00:45:23;;;;;;;25.73;11.57;;;1.80;99.90;;;;;;5015286;28;20064;-56
2021/01/16 00:47:50;;;;;;;21.63;9.52;;;1.80;99.90;;;;;;4997689;28;20083;-58
2021/01/16 00:50:19;;;;;;;21.73;10.07;;;1.90;99.90;;;;;;5015185;28;20025;-58
2021/01/16 00:52:56;;;;;;;20.58;9.63;;;1.90;99.90;;;;;;5015338;28;20041;-56
2021/01/16 00:55:23;;;;;;;25.08;10.30;;;1.90;99.90;;;;;;5013440;28;20036;-57
2021/01/16 00:57:50;;;;;;;23.23;10.32;;;1.90;99.90;;;;;;5014800;28;20022;-57
2021/01/16 01:00:18;;;;;;;20.88;9.85;;;1.80;99.90;;;;;;5014054;28;20030;-58
2021/01/16 01:02:44;;;;;;;24.02;11.20;;;1.80;99.90;;;;;;5015036;28;20036;-59
2021/01/16 01:05:15;;;;;;;26.42;10.23;;;1.90;99.90;;;;;;5014786;28;20041;-59
2021/01/16 01:07:44;;;;;;;22.92;10.25;;;1.90;99.90;;;;;;5014834;28;20041;-58
2021/01/16 01:10:10;;;;;;;21.85;9.77;;;1.90;99.90;;;;;;5014870;28;20096;-58
2021/01/16 01:12:39;;;;;;;26.52;9.55;;;1.90;99.90;;;;;;5014875;28;20036;-58
2021/01/16 01:15:07;;;;;;;22.95;10.13;;;1.90;99.90;;;;;;5014511;28;20040;-58
2021/01/16 01:17:34;;;;;;;27.15;10.63;;;1.90;99.90;;;;;;5014865;28;20080;-58
2021/01/16 01:20:00;;;;;;;25.98;10.02;;;1.90;99.90;;;;;;5014527;28;20048;-58
2021/01/16 01:22:30;;;;;;;23.73;10.75;;;1.80;99.90;;;;;;5014557;28;20034;-59
2021/01/16 01:24:58;;;;;;;23.20;10.05;;;1.80;99.90;;;;;;5030060;28;20034;-59
2021/01/16 01:27:24;;;;;;;19.40;9.95;;;1.90;99.90;;;;;;5014381;28;20033;-59
2021/01/16 01:29:50;;;;;;;24.77;10.68;;;1.80;99.90;;;;;;5014648;28;20056;-59
2021/01/16 01:32:16;;;;;;;23.67;9.85;;;1.90;99.90;;;;;;5014415;28;20026;-57
2021/01/16 01:34:42;;;;;;;22.80;10.43;;;1.80;99.90;;;;;;5014401;28;20038;-55
2021/01/16 01:37:08;;;;;;;23.02;10.38;;;1.90;99.90;;;;;;5014089;28;20088;-57
2021/01/16 01:39:34;;;;;;;26.30;11.07;;;1.90;99.90;;;;;;5014268;28;20030;-59
2021/01/16 01:42:00;;;;;;;23.33;10.18;;;1.80;99.90;;;;;;5014198;28;20037;-59
2021/01/16 01:44:26;;;;;;;25.08;10.35;;;1.80;99.90;;;;;;5013807;28;20057;-57
2021/01/16 01:46:52;;;;;;;24.80;9.73;;;1.80;99.90;;;;;;5014312;28;20049;-58
2021/01/16 01:49:18;;;;;;;24.08;9.80;;;1.90;99.90;;;;;;5014136;28;20049;-58
2021/01/16 01:51:44;;;;;;;25.98;11.00;;;1.90;99.90;;;;;;5013040;28;20057;-58
2021/01/16 01:54:11;;;;;;;23.17;10.63;;;1.80;99.90;;;;;;5013692;28;20072;-59
2021/01/16 01:56:41;;;;;;;22.05;10.05;;;1.80;99.90;;;;;;5013014;28;20034;-57
2021/01/16 01:59:08;;;;;;;22.08;9.85;;;1.90;99.90;;;;;;5014104;28;20033;-56
2021/01/16 02:01:38;;;;;;;26.02;11.70;;;1.90;99.90;;;;;;5013703;28;20038;-57
2021/01/16 02:04:07;;;;;;;23.70;10.48;;;1.90;99.90;;;;;;5013766;28;20037;-58
2021/01/16 02:06:33;;;;;;;20.95;10.05;;;1.80;99.90;;;;;;5012787;28;20034;-58
2021/01/16 02:08:59;;;;;;;24.65;10.55;;;1.90;99.90;;;;;;5013937;28;20048;-59
2021/01/16 02:11:24;;;;;;;23.27;10.02;;;1.90;99.90;;;;;;5013090;28;20034;-58
2021/01/16 02:13:50;;;;;;;24.48;10.00;;;1.90;99.90;;;;;;5013401;28;20042;-58
2021/01/16 02:16:42;;;;;;;22.23;10.27;;;1.80;99.90;;;;;;5012438;28;20109;-59
2021/01/16 02:19:08;;;;;;;22.25;9.55;;;1.80;99.90;;;;;;5013506;28;20030;-59
2021/01/16 02:21:39;;;;;;;19.98;9.82;;;1.90;99.90;;;;;;5013421;28;20141;-58
2021/01/16 02:24:19;;;;;;;23.08;10.70;;;1.90;99.90;;;;;;5013651;28;20116;-59
2021/01/16 02:27:23;;;;;;;22.23;10.05;;;1.90;99.90;;;;;;5013602;28;20044;-57
2021/01/16 02:29:50;;;;;;;21.52;9.55;;;1.80;99.90;;;;;;5012514;28;20045;-57
2021/01/16 02:32:17;;;;;;;22.52;10.25;;;1.80;99.90;;;;;;5011976;28;20034;-56
2021/01/16 02:34:48;;;;;;;22.35;10.55;;;1.70;99.90;;;;;;5012149;28;20036;-58
2021/01/16 02:37:55;;;;;;;20.05;9.80;;;1.80;99.90;;;;;;5011932;28;20088;-57
2021/01/16 02:40:29;;;;;;;24.02;9.77;;;1.80;99.90;;;;;;4990884;28;20050;-57
2021/01/16 02:43:11;;;;;;;22.38;9.88;;;1.80;99.90;;;;;;4991085;28;20042;-56
2021/01/16 02:45:44;;;;;;;20.45;10.15;;;1.80;99.90;;;;;;4997264;28;20049;-58
2021/01/16 02:48:14;;;;;;;23.98;9.23;;;1.80;99.90;;;;;;5013247;28;20037;-57
2021/01/16 02:50:48;;;;;;;21.75;9.43;;;1.80;99.90;;;;;;5012960;28;20065;-58
2021/01/16 02:53:15;;;;;;;22.80;10.80;;;1.80;99.90;;;;;;5011811;28;20022;-57
2021/01/16 02:55:41;;;;;;;20.02;9.82;;;1.90;99.90;;;;;;5011821;28;20041;-58
2021/01/16 02:58:07;;;;;;;22.95;10.25;;;1.80;99.90;;;;;;5011496;28;20041;-57
2021/01/16 03:00:33;;;;;;;21.63;9.63;;;1.80;99.90;;;;;;5012944;28;20040;-57
2021/01/16 03:02:59;;;;;;;21.23;9.35;;;1.90;99.90;;;;;;5012604;28;20026;-57
2021/01/16 03:05:25;;;;;;;22.75;10.48;;;1.80;99.90;;;;;;5012814;28;20382;-59
2021/01/16 03:07:51;;;;;;;27.90;11.05;;;1.80;99.90;;;;;;5012926;28;20083;-55
2021/01/16 03:10:21;;;;;;;21.70;9.63;;;1.80;99.90;;;;;;5012401;28;20029;-57
2021/01/16 03:12:47;;;;;;;20.73;9.50;;;1.90;99.90;;;;;;5012810;28;20038;-57
2021/01/16 03:15:17;;;;;;;24.13;10.27;;;1.90;99.90;;;;;;5012373;28;20040;-58
2021/01/16 03:17:57;;;;;;;22.25;10.82;;;1.90;99.90;;;;;;5012781;28;20088;-57
2021/01/16 03:20:31;;;;;;;23.90;9.75;;;1.80;99.90;;;;;;5012584;28;20030;-57
2021/01/16 03:22:59;;;;;;;23.75;9.95;;;1.80;99.90;;;;;;5011989;28;20030;-57
2021/01/16 03:25:31;;;;;;;24.83;11.20;;;1.80;99.90;;;;;;5012504;28;20034;-57
2021/01/16 03:27:59;;;;;;;23.58;10.07;;;1.80;99.90;;;;;;5012383;28;20124;-58
2021/01/16 03:30:26;;;;;;;26.50;10.02;;;1.80;99.90;;;;;;5012609;28;20026;-59
2021/01/16 03:32:53;;;;;;;23.90;11.25;;;1.80;99.90;;;;;;5012542;28;20026;-59
2021/01/16 03:35:23;;;;;;;20.83;9.80;;;1.80;99.90;;;;;;5012424;28;20034;-59
2021/01/16 03:37:49;;;;;;;20.25;9.57;;;1.70;99.90;;;;;;5012089;28;20130;-58
2021/01/16 03:40:16;;;;;;;23.00;10.10;;;1.70;99.90;;;;;;5012432;28;20131;-58
2021/01/16 03:42:43;;;;;;;22.35;10.40;;;1.70;99.90;;;;;;5012219;28;20033;-58
2021/01/16 03:45:13;;;;;;;22.83;10.70;;;1.80;99.90;;;;;;5012478;28;20113;-58
2021/01/16 03:47:39;;;;;;;22.40;9.30;;;1.80;99.90;;;;;;5012217;28;20041;-58
2021/01/16 03:50:07;;;;;;;23.27;10.45;;;1.70;99.90;;;;;;5012441;28;20277;-58
2021/01/16 03:52:36;;;;;;;22.38;9.60;;;1.70;99.90;;;;;;5012213;28;20120;-58
2021/01/16 03:55:05;;;;;;;24.70;9.35;;;1.70;99.90;;;;;;5012294;28;20121;-59
2021/01/16 03:57:31;;;;;;;22.42;10.50;;;1.70;99.90;;;;;;5012215;28;20032;-59
2021/01/16 03:59:57;;;;;;;22.27;10.73;;;1.70;99.90;;;;;;5012412;28;20109;-58
2021/01/16 04:02:23;;;;;;;22.17;9.77;;;1.70;99.90;;;;;;5011782;28;20079;-57
2021/01/16 04:04:49;;;;;;;21.80;9.70;;;1.70;99.90;;;;;;5012378;28;20033;-58
2021/01/16 04:07:16;;;;;;;18.65;9.77;;;1.60;99.90;;;;;;5011955;28;20037;-58
2021/01/16 04:09:44;;;;;;;22.17;10.18;;;1.60;99.90;;;;;;5012018;28;20029;-57
2021/01/16 04:12:11;;;;;;;21.52;9.23;;;1.60;99.90;;;;;;5012320;28;20040;-58
2021/01/16 04:14:37;;;;;;;24.52;10.73;;;1.60;99.90;;;;;;5011959;28;20044;-58
2021/01/16 04:17:08;;;;;;;22.08;9.57;;;1.60;99.90;;;;;;5012204;28;20030;-57
2021/01/16 04:19:35;;;;;;;19.88;9.20;;;1.50;99.90;;;;;;5011976;28;20088;-57
2021/01/16 04:22:01;;;;;;;25.65;9.65;;;1.40;99.90;;;;;;5012065;28;20045;-57
2021/01/16 04:24:27;;;;;;;23.50;10.38;;;1.50;99.90;;;;;;5011942;28;20036;-57
2021/01/16 04:26:54;;;;;;;22.77;9.70;;;1.60;99.90;;;;;;5012097;28;20030;-59
2021/01/16 04:29:20;;;;;;;22.98;10.82;;;1.50;99.90;;;;;;5012015;28;20126;-59
2021/01/16 04:31:47;;;;;;;21.00;10.40;;;1.60;99.90;;;;;;5011788;28;20034;-58
2021/01/16 04:34:14;;;;;;;24.92;10.68;;;1.60;99.90;;;;;;5014576;28;20124;-58
2021/01/16 04:36:40;;;;;;;23.02;9.98;;;1.60;99.90;;;;;;5015112;28;20026;-56
2021/01/16 04:39:06;;;;;;;20.52;9.52;;;1.60;99.90;;;;;;5015656;28;20053;-58
2021/01/16 04:41:35;;;;;;;23.30;10.85;;;1.60;99.90;;;;;;5015428;28;20037;-57
2021/01/16 04:44:02;;;;;;;25.02;9.73;;;1.60;99.90;;;;;;5015216;28;20030;-61
2021/01/16 04:46:29;;;;;;;25.20;10.07;;;1.60;99.90;;;;;;5015103;28;20034;-59
2021/01/16 04:49:04;;;;;;;22.50;9.98;;;1.70;99.90;;;;;;5014195;28;20106;-60
2021/01/16 04:51:43;;;;;;;21.45;10.55;;;1.60;99.90;;;;;;5015301;28;20112;-59
2021/01/16 04:54:15;;;;;;;24.10;11.40;;;1.70;99.90;;;;;;5014932;28;20037;-58
2021/01/16 04:56:42;;;;;;;22.83;10.82;;;1.70;99.90;;;;;;5015296;28;20030;-59
2021/01/16 04:59:08;;;;;;;21.83;9.85;;;1.70;99.90;;;;;;5014913;28;20038;-59
2021/01/16 05:01:34;;;;;;;25.73;11.93;;;1.50;99.90;;;;;;5015085;28;20048;-58
2021/01/16 05:04:00;;;;;;;23.63;10.70;;;1.60;99.90;;;;;;5014889;28;20437;-59
2021/01/16 05:06:28;;;;;;;23.90;10.43;;;1.50;99.90;;;;;;5015015;28;20108;-59
2021/01/16 05:08:58;;;;;;;24.02;11.20;;;1.40;99.90;;;;;;5015124;28;20060;-58
2021/01/16 05:11:24;;;;;;;22.02;9.93;;;1.50;99.90;;;;;;5014766;28;20117;-58
2021/01/16 05:14:08;;;;;;;24.63;11.68;;;1.50;99.90;;;;;;5015259;28;20050;-58
2021/01/16 05:16:54;;;;;;;27.13;10.98;;;1.40;99.90;;;;;;5014488;28;20046;-59
2021/01/16 05:19:35;;;;;;;24.80;11.20;;;1.30;99.90;;;;;;5013769;28;20041;-57
2021/01/16 05:22:02;;;;;;;22.88;10.18;;;1.40;99.90;;;;;;5014621;28;20037;-58
2021/01/16 05:24:28;;;;;;;27.35;11.50;;;1.50;99.90;;;;;;5014380;28;20033;-58
2021/01/16 05:26:54;;;;;;;23.67;10.75;;;1.30;99.90;;;;;;5014371;28;20060;-57
2021/01/16 05:29:25;;;;;;;27.80;11.63;;;1.40;99.90;;;;;;5014284;28;20250;-58
2021/01/16 05:31:53;;;;;;;27.00;11.63;;;1.30;99.90;;;;;;5014310;28;20033;-57
2021/01/16 05:34:23;;;;;;;26.42;11.23;;;1.30;99.90;;;;;;5014494;28;20037;-58
2021/01/16 05:36:50;;;;;;;22.17;10.63;;;1.30;99.90;;;;;;5014340;28;20108;-59
2021/01/16 05:39:22;;;;;;;21.55;10.48;;;1.30;99.90;;;;;;5014517;28;20038;-57
2021/01/16 05:41:48;;;;;;;23.45;10.88;;;1.50;99.90;;;;;;5014507;28;20121;-58
2021/01/16 05:44:15;;;;;;;18.95;8.48;;;1.20;99.90;;;;;;5013769;28;20037;-59
2021/01/16 05:46:45;;;;;;;25.02;9.50;;;1.30;99.90;;;;;;5014051;28;20030;-58
2021/01/16 05:49:18;;;;;;;19.42;9.38;;;1.40;99.90;;;;;;5012806;28;20390;-58
2021/01/16 05:51:46;;;;;;;16.98;7.97;;;1.40;99.90;;;;;;5013883;28;20161;-56
2021/01/16 05:54:13;;;;;;;15.85;7.97;;;1.50;99.90;;;;;;5014073;28;20026;-58
2021/01/16 05:56:41;;;;;;;16.80;7.90;;;1.50;99.90;;;;;;5013833;28;20084;-57
2021/01/16 05:59:19;;;;;;;19.73;8.60;;;1.50;99.90;;;;;;5014075;28;20044;-58
2021/01/16 06:01:51;;;;;;;16.05;7.95;;;1.40;99.90;;;;;;5013976;28;20030;-56
2021/01/16 06:04:21;;;;;;;17.67;7.28;;;1.40;99.90;;;;;;5014053;28;20025;-57
2021/01/16 06:06:48;;;;;;;19.40;8.65;;;1.40;99.90;;;;;;5010467;28;20045;-57
2021/01/16 06:09:19;;;;;;;18.98;6.90;;;1.30;99.90;;;;;;4993631;28;20080;-58
2021/01/16 06:11:50;;;;;;;16.15;7.15;;;1.30;99.90;;;;;;4993951;28;20034;-57
2021/01/16 06:14:18;;;;;;;17.95;7.00;;;1.30;99.90;;;;;;4993730;28;20026;-58
2021/01/16 06:16:50;;;;;;;14.55;7.20;;;1.20;99.90;;;;;;4994105;28;20043;-58
2021/01/16 06:19:22;;;;;;;18.73;7.00;;;1.30;99.90;;;;;;4993897;28;20121;-57
2021/01/16 06:21:50;;;;;;;14.50;7.47;;;1.10;99.90;;;;;;4993994;28;20084;-60
2021/01/16 06:24:22;;;;;;;16.27;6.93;;;1.00;99.90;;;;;;4994105;28;20038;-57
2021/01/16 06:26:59;;;;;;;14.77;7.28;;;1.10;99.90;;;;;;4993894;28;20121;-57
2021/01/16 06:29:34;;;;;;;17.00;8.27;;;1.10;99.90;;;;;;4993846;28;20042;-58
2021/01/16 06:32:11;;;;;;;16.42;7.63;;;1.20;99.90;;;;;;4993798;28;20049;-59
2021/01/16 06:34:40;;;;;;;13.18;6.28;;;1.10;99.90;;;;;;4992959;28;20038;-59
2021/01/16 06:37:15;;;;;;;13.07;6.53;;;1.20;99.90;;;;;;4993342;28;20132;-57
2021/01/16 06:39:47;;;;;;;14.90;6.75;;;1.10;99.90;;;;;;4993585;28;20034;-59
2021/01/16 06:42:21;;;;;;;15.38;6.60;;;1.00;99.90;;;;;;4993582;28;20026;-58
2021/01/16 06:44:48;;;;;;;15.52;6.47;;;1.00;99.90;;;;;;4993537;28;20070;-58
2021/01/16 06:47:14;;;;;;;14.85;7.25;;;0.90;99.90;;;;;;4993267;28;20029;-58
2021/01/16 06:49:40;;;;;;;13.77;6.47;;;0.90;99.90;;;;;;4993402;28;20456;-57
2021/01/16 06:52:07;;;;;;;13.20;5.68;;;0.90;99.90;;;;;;4993499;28;20033;-59
2021/01/16 06:54:38;;;;;;;13.70;6.55;;;1.00;99.90;;;;;;4993481;28;20034;-58
2021/01/16 06:57:14;;;;;;;13.53;6.07;;;1.00;99.90;;;;;;4992254;28;20034;-58
2021/01/16 06:59:44;;;;;;;15.68;6.43;;;1.00;99.90;;;;;;4992043;28;20282;-59
2021/01/16 07:02:35;;;;;;;13.75;5.72;;;0.90;99.90;;;;;;4993214;28;20038;-58
2021/01/16 07:05:05;;;;;;;14.68;5.97;;;1.00;99.90;;;;;;4993375;28;20038;-58
2021/01/16 07:07:37;;;;;;;13.05;5.53;;;1.10;99.90;;;;;;4992806;28;20038;-60
2021/01/16 07:10:12;;;;;;;13.80;6.40;;;1.10;99.90;;;;;;4992987;28;20110;-58
2021/01/16 07:12:52;;;;;;;13.98;6.28;;;1.10;99.90;;;;;;4992686;28;20031;-59
2021/01/16 07:15:20;;;;;;;14.38;6.38;;;1.00;99.90;;;;;;4993048;28;20080;-58
2021/01/16 07:17:48;;;;;;;17.95;7.80;;;1.00;99.90;;;;;;4992854;28;20030;-57
2021/01/16 07:20:15;;;;;;;13.40;6.75;;;0.90;99.90;;;;;;4993035;28;20034;-58
2021/01/16 07:22:43;;;;;;;12.30;5.82;;;1.00;99.90;;;;;;4992630;28;20064;-58
2021/01/16 07:25:14;;;;;;;13.30;6.45;;;1.00;99.90;;;;;;4992742;28;20037;-53
2021/01/16 07:27:42;;;;;;;13.82;6.45;;;1.00;99.90;;;;;;4992884;28;20111;-58
2021/01/16 07:30:11;;;;;;;14.73;6.75;;;1.00;99.90;;;;;;4992659;28;20039;-58
2021/01/16 07:32:49;;;;;;;13.50;6.50;;;1.00;99.90;;;;;;4992624;28;20030;-57
2021/01/16 07:35:19;;;;;;;13.57;6.00;;;1.00;99.90;;;;;;4992871;28;20038;-57
2021/01/16 07:37:47;;;;;;;13.70;6.75;;;1.00;99.90;;;;;;4992314;28;20050;-57
2021/01/16 07:40:27;;;;;;;13.05;6.00;;;1.00;99.90;;;;;;4991588;28;20037;-57
2021/01/16 07:42:57;;;;;;;17.42;7.07;;;0.90;99.90;;;;;;4992762;28;20059;-56
2021/01/16 07:45:30;;;;;;;16.93;7.27;;;0.90;99.90;;;;;;4992659;28;20038;-55
2021/01/16 07:48:02;;;;;;;13.70;5.95;;;0.90;99.90;;;;;;4992774;28;20113;-57
2021/01/16 07:50:34;;;;;;;15.02;6.53;;;0.90;99.90;;;;;;4992709;28;20031;-58
2021/01/16 07:53:04;;;;;;;14.57;5.45;;;0.80;99.90;;;;;;4992719;28;20034;-59
2021/01/16 07:55:45;;;;;;;14.80;6.93;;;0.70;99.90;;;;;;4992628;28;20035;-58
2021/01/16 07:58:36;;;;;;;;;;;0.70;99.90;;;;;;4993000;28;20035;-58
2021/01/16 08:01:40;;;;;;;12.65;6.00;;;0.60;99.90;;;;;;4992682;28;19913;-58
2021/01/16 08:04:43;;;;;;;12.68;6.13;;;0.70;99.90;;;;;;4992620;28;20041;-57
2021/01/16 08:07:10;;;;;;;13.95;6.43;;;0.60;99.90;;;;;;4988247;28;20044;-56
2021/01/16 08:09:57;;;;;;;11.50;5.80;;;0.70;99.90;;;;;;4995763;28;20030;-56
2021/01/16 08:12:27;;;;;;;12.05;5.70;;;0.70;99.90;;;;;;4996210;28;20026;-57
2021/01/16 08:14:55;;;;;;;11.10;5.75;;;0.70;99.90;;;;;;4995883;28;20051;-56
2021/01/16 08:17:47;;;;;;;19.73;9.63;;;0.70;99.90;;;;;;4996143;28;20026;-57
2021/01/16 08:20:34;;;;;;;16.25;8.02;;;1.00;99.90;;;;;;4994321;28;20049;-59
2021/01/16 08:23:03;;;;;;;12.68;6.05;;;1.00;99.90;;;;;;4995033;28;20038;-59
2021/01/16 08:25:32;;;;;;;12.98;5.72;;;0.90;99.90;;;;;;4996166;28;20030;-57
2021/01/16 08:28:01;;;;;;;14.18;6.20;;;1.00;99.90;;;;;;4995852;28;20026;-57
2021/01/16 08:30:30;;;;;;;10.95;5.45;;;0.70;99.90;;;;;;4995977;28;20085;-57
2021/01/16 08:33:07;;;;;;;9.45;5.15;;;0.80;99.90;;;;;;4995597;28;20031;-58
2021/01/16 08:35:45;;;;;;;14.82;7.30;;;0.80;99.90;;;;;;4995529;28;20042;-56
2021/01/16 08:38:17;;;;;;;12.63;6.78;;;0.90;99.90;;;;;;4995534;28;20050;-57
2021/01/16 08:41:04;;;;;;;13.32;6.00;;;0.90;99.90;;;;;;4995324;28;20041;-58
2021/01/16 08:43:43;;;;;;;11.68;5.75;;;0.90;99.90;;;;;;4995534;28;20295;-59
2021/01/16 08:46:18;;;;;;;12.90;6.35;;;0.90;99.90;;;;;;4995571;28;20065;-57
2021/01/16 08:49:10;;;;;;;13.60;5.90;;;1.00;99.90;;;;;;4995272;28;20038;-58
2021/01/16 08:51:44;;;;;;;12.30;5.90;;;0.90;99.90;;;;;;4995454;28;20026;-58
2021/01/16 08:54:20;;;;;;;12.65;5.85;;;1.00;99.90;;;;;;4995615;28;20029;-58
2021/01/16 08:56:47;;;;;;;16.08;6.72;;;1.10;99.90;;;;;;4995300;28;20088;-56
2021/01/16 08:59:30;;;;;;;13.30;5.95;;;1.10;99.90;;;;;;4995307;28;20037;-56
2021/01/16 09:02:13;;;;;;;11.57;5.95;;;0.90;99.90;;;;;;4976932;28;20042;-58
2021/01/16 09:04:41;;;;;;;16.88;6.63;;;0.90;99.90;;;;;;4994936;28;20038;-57
2021/01/16 09:07:22;;;;;;;14.60;5.90;;;0.90;99.90;;;;;;4995371;28;20034;-57
2021/01/16 09:10:00;;;;;;;11.75;6.18;;;1.00;99.90;;;;;;4994936;28;20060;-59
2021/01/16 09:12:33;;;;;;;11.75;5.35;;;0.90;99.90;;;;;;4995061;28;20121;-56
2021/01/16 09:15:22;;;;;;;12.13;5.93;;;0.80;99.90;;;;;;4994801;28;20139;-56
2021/01/16 09:18:00;;;;;;;14.30;6.28;;;0.80;99.90;;;;;;4994778;28;20092;-58
2021/01/16 09:20:26;;;;;;;14.40;6.55;;;0.90;99.90;;;;;;4993811;28;20081;-61
2021/01/16 09:22:52;;;;;;;15.02;5.97;;;1.10;99.90;;;;;;4994396;28;20027;-56
2021/01/16 09:25:23;;;;;;;13.43;6.18;;;0.90;99.90;;;;;;4994715;28;20037;-58
2021/01/16 09:27:50;;;;;;;12.97;6.73;;;0.80;99.90;;;;;;4994686;28;20045;-57
2021/01/16 09:30:31;;;;;;;12.43;5.68;;;1.00;99.90;;;;;;4994768;28;20285;-57
2021/01/16 09:33:18;;;;;;;10.93;5.40;;;0.90;99.90;;;;;;4993564;28;20081;-58
2021/01/16 09:35:44;;;;;;;12.70;5.55;;;1.00;99.90;;;;;;4993577;28;20106;-56
2021/01/16 09:38:19;;;;;;;16.63;6.15;;;1.10;99.90;;;;;;4994359;28;20079;-57
2021/01/16 09:40:50;;;;;;;12.05;5.82;;;1.10;99.90;;;;;;4994383;28;20074;-58
2021/01/16 09:43:26;;;;;;;12.57;5.55;;;1.20;99.90;;;;;;4993511;28;20026;-58
2021/01/16 09:45:57;;;;;;;14.23;5.57;;;1.30;99.90;;;;;;4994276;28;20038;-61
2021/01/16 09:48:32;;;;;;;14.68;6.43;;;1.20;99.90;;;;;;4994555;28;20030;-57
2021/01/16 09:51:02;;;;;;;13.68;6.28;;;1.10;99.90;;;;;;4994224;28;20053;-58
2021/01/16 09:53:30;;;;;;;10.63;5.23;;;1.00;99.90;;;;;;4993223;28;20026;-57
2021/01/16 09:55:56;;;;;;;16.25;6.57;;;1.00;99.90;;;;;;4994034;28;20066;-55
2021/01/16 09:58:40;;;;;;;13.50;6.60;;;0.90;99.90;;;;;;4994208;28;20037;-57
2021/01/16 10:01:24;;;;;;;10.75;5.22;;;0.90;99.90;;;;;;4994029;28;20057;-57
2021/01/16 10:04:02;;;;;;;12.65;5.63;;;1.20;99.90;;;;;;4993894;28;20045;-57
2021/01/16 10:06:34;;;;;;;14.85;6.50;;;1.10;99.90;;;;;;4993217;28;20064;-57
2021/01/16 10:09:01;;;;;;;12.70;6.05;;;0.90;99.90;;;;;;4993827;28;20038;-56
2021/01/16 10:11:44;;;;;;;14.38;6.18;;;0.70;99.90;;;;;;4993799;28;20027;-58
2021/01/16 10:14:20;;;;;;;12.48;6.05;;;0.80;99.90;;;;;;4993802;28;20034;-55
2021/01/16 10:16:48;;;;;;;14.10;6.45;;;0.90;99.90;;;;;;4993758;28;20038;-57
2021/01/16 10:19:16;;;;;;;14.40;6.90;;;1.10;99.90;;;;;;4993787;28;20030;-56
2021/01/16 10:21:56;;;;;;;14.43;6.28;;;1.30;99.90;;;;;;4992593;28;20034;-57
2021/01/16 10:24:24;;;;;;;15.68;6.10;;;1.40;99.90;;;;;;4992514;28;20121;-58
2021/01/16 10:26:51;;;;;;;13.75;5.78;;;1.50;99.90;;;;;;4993775;28;20038;-58
2021/01/16 10:29:40;;;;;;;14.82;5.38;;;1.50;99.90;;;;;;4993823;28;20030;-56
2021/01/16 10:32:24;;;;;;;15.00;6.38;;;1.70;99.90;;;;;;4993191;28;20033;-58
2021/01/16 10:34:51;;;;;;;13.43;6.70;;;1.90;99.90;;;;;;4993456;28;20121;-58
2021/01/16 10:37:18;;;;;;;11.63;5.63;;;1.60;99.90;;;;;;4993421;28;20089;-59
2021/01/16 10:39:51;;;;;;;9.10;4.68;;;1.70;99.90;;;;;;4993077;28;20034;-57
2021/01/16 10:42:18;;;;;;;9.82;5.05;;;1.70;99.90;;;;;;4993191;28;20031;-58
2021/01/16 10:44:45;;;;;;;10.52;5.28;;;1.80;99.90;;;;;;4993095;28;20069;-57
2021/01/16 10:47:32;;;;;;;11.25;6.05;;;1.80;99.90;;;;;;5010065;28;20042;-58
2021/01/16 10:50:06;;;;;;;12.20;5.57;;;1.90;99.90;;;;;;5012750;28;20030;-59
2021/01/16 10:52:33;;;;;;;11.43;4.70;;;1.90;99.90;;;;;;5012759;28;20045;-58
2021/01/16 10:55:05;;;;;;;8.82;4.82;;;1.80;99.90;;;;;;5012473;28;20068;-56
2021/01/16 10:57:50;;;;;;;11.23;4.85;;;1.80;99.90;;;;;;5012607;28;20096;-59
2021/01/16 11:00:19;;;;;;;12.07;5.25;;;2.10;99.90;;;;;;5012538;28;20030;-58
2021/01/16 11:02:50;;;;;;;11.68;5.65;;;1.90;99.90;;;;;;5012793;28;20022;-61
2021/01/16 11:05:16;;;;;;;11.65;5.30;;;1.80;99.90;;;;;;5011434;28;20037;-60
2021/01/16 11:07:48;;;;;;;9.27;4.78;;;1.90;99.90;;;;;;5012464;28;20037;-59
2021/01/16 11:10:30;;;;;;;;;;;2.20;99.90;;;;;;5013286;28;20033;-50
2021/01/16 11:13:19;;;;;;;7.38;3.55;;;2.20;99.90;;;;;;5012666;28;19917;-60
2021/01/16 11:15:49;;;;;;;8.32;3.80;;;1.80;99.90;;;;;;5011039;28;20133;-59
2021/01/16 11:18:34;;;;;;;6.63;3.23;;;1.70;99.90;;;;;;5012506;28;20025;-57
2021/01/16 11:21:07;;;;;;;9.73;4.05;;;1.60;99.90;;;;;;5012352;28;20041;-58
2021/01/16 11:23:44;;;;;;;6.47;3.30;;;1.70;99.90;;;;;;5012465;28;20034;-57
2021/01/16 11:26:10;;;;;;;7.20;3.67;;;1.70;99.90;;;;;;5010820;28;20029;-59
2021/01/16 11:29:13;;;;;;;7.80;4.00;;;1.60;99.90;;;;;;5012462;28;20040;-57
2021/01/16 11:31:48;;;;;;;9.23;4.28;;;1.60;99.90;;;;;;5010667;28;20036;-57
2021/01/16 11:34:24;;;;;;;9.25;4.00;;;1.50;99.90;;;;;;5012496;28;20022;-58
2021/01/16 11:37:04;;;;;;;8.07;4.13;;;1.50;99.90;;;;;;5010972;28;20037;-56
2021/01/16 11:39:43;;;;;;;10.30;4.35;;;1.30;99.90;;;;;;5012236;28;20045;-58
2021/01/16 11:42:12;;;;;;;10.50;4.65;;;1.50;99.90;;;;;;5012449;28;20034;-57
2021/01/16 11:44:55;;;;;;;10.23;4.93;;;1.70;99.90;;;;;;5018695;28;20139;-57
2021/01/16 11:47:23;;;;;;;7.55;3.70;;;1.60;99.90;;;;;;5018781;28;20125;-57
2021/01/16 11:49:50;;;;;;;8.40;3.60;;;1.60;99.90;;;;;;5018721;28;20084;-58
2021/01/16 11:52:16;;;;;;;7.05;3.70;;;1.50;99.90;;;;;;5017257;28;20033;-58
2021/01/16 11:54:42;;;;;;;6.75;3.47;;;1.60;99.90;;;;;;5018520;28;20116;-57
2021/01/16 11:57:11;;;;;;;7.63;3.70;;;1.40;99.90;;;;;;5017200;28;20049;-58
2021/01/16 11:59:40;;;;;;;7.97;3.65;;;1.20;99.90;;;;;;5018488;28;20049;-59
2021/01/16 12:02:19;;;;;;;9.57;3.40;;;1.20;99.90;;;;;;5018435;28;20041;-57
2021/01/16 12:04:46;;;;;;;7.00;3.35;;;1.30;99.90;;;;;;5017399;28;20113;-57
2021/01/16 12:07:14;;;;;;;9.35;3.78;;;1.40;99.90;;;;;;5018194;28;20065;-57
2021/01/16 12:09:45;;;;;;;8.38;3.33;;;1.40;99.90;;;;;;5018469;28;20068;-59
2021/01/16 12:12:12;;;;;;;9.05;3.53;;;1.40;99.90;;;;;;5018486;28;20033;-58
2021/01/16 12:14:41;;;;;;;7.90;3.70;;;1.40;99.90;;;;;;5018494;28;20087;-57
2021/01/16 12:17:17;;;;;;;5.07;2.85;;;1.40;99.90;;;;;;5017135;28;20025;-59
2021/01/16 12:19:43;;;;;;;8.25;4.25;;;1.50;99.90;;;;;;5018240;28;20105;-56
2021/01/16 12:22:11;;;;;;;8.48;3.80;;;1.40;99.90;;;;;;5018140;28;20029;-56
2021/01/16 12:24:38;;;;;;;8.43;3.65;;;1.60;99.90;;;;;;5018555;28;20030;-54
2021/01/16 12:27:06;;;;;;;7.22;3.70;;;1.70;99.90;;;;;;5018140;28;20026;-64
2021/01/16 12:29:44;;;;;;;6.43;3.50;;;1.80;99.90;;;;;;5018020;28;20037;-59
2021/01/16 12:32:12;;;;;;;8.93;4.05;;;1.90;99.90;;;;;;5018065;28;20030;-59
2021/01/16 12:34:55;;;;;;;7.20;2.80;;;1.80;99.90;;;;;;5018067;28;20115;-60
2021/01/16 12:37:31;;;;;;;10.02;4.60;;;1.80;99.90;;;;;;5018068;28;20072;-59
2021/01/16 12:40:01;;;;;;;7.72;3.75;;;1.80;99.90;;;;;;5018290;28;20033;-59
2021/01/16 12:42:32;;;;;;;7.55;4.13;;;1.80;99.90;;;;;;5018383;28;20034;-60
2021/01/16 12:45:14;;;;;;;7.97;3.42;;;1.70;99.90;;;;;;5016672;28;20030;-58
2021/01/16 12:47:44;;;;;;;6.65;3.30;;;1.80;99.90;;;;;;5018371;28;20034;-59
2021/01/16 12:50:11;;;;;;;8.48;3.97;;;1.90;99.90;;;;;;5017772;28;20030;-59
2021/01/16 12:52:38;;;;;;;9.82;4.53;;;2.00;99.90;;;;;;5018185;28;20124;-58
2021/01/16 12:55:10;;;;;;;9.07;4.32;;;2.00;99.90;;;;;;5015882;28;20037;-60
2021/01/16 12:57:42;;;;;;;10.48;4.13;;;1.90;99.90;;;;;;5014721;28;20164;-59
2021/01/16 13:00:25;;;;;;;17.02;8.77;;;1.90;99.90;;;;;;5014933;28;20033;-58
2021/01/16 13:02:59;;;;;;;12.60;5.47;;;2.00;99.90;;;;;;5014811;28;20041;-59
2021/01/16 13:05:28;;;;;;;10.68;4.32;;;2.10;99.90;;;;;;5014976;28;20096;-60
2021/01/16 13:08:01;;;;;;;11.18;5.35;;;2.10;99.90;;;;;;5014453;28;20030;-59